createdAt,value
2023-03-06T00:00:29.759Z,21.49
2023-03-06T00:02:31.122Z,21.48
2023-03-06T00:04:32.457Z,21.53
2023-03-06T00:06:33.751Z,21.42
2023-03-06T00:08:35.099Z,21.36
2023-03-06T00:10:36.433Z,21.33
2023-03-06T00:12:37.723Z,21.34
2023-03-06T00:14:39.083Z,21.33
2023-03-06T00:16:40.432Z,21.33
2023-03-06T00:18:44.081Z,21.30
2023-03-06T00:20:45.417Z,21.28
2023-03-06T00:22:46.764Z,21.27
2023-03-06T00:24:48.068Z,21.27
2023-03-06T00:26:49.485Z,21.25
2023-03-06T00:28:50.806Z,21.27
2023-03-06T00:30:52.196Z,21.29
2023-03-06T00:32:53.513Z,21.28
2023-03-06T00:34:54.859Z,21.27
2023-03-06T00:36:56.213Z,21.27
2023-03-06T00:38:57.605Z,21.26
2023-03-06T00:40:58.940Z,21.27
2023-03-06T00:43:00.238Z,21.28
2023-03-06T00:45:01.574Z,21.28
2023-03-06T00:47:02.928Z,21.28
2023-03-06T00:49:04.231Z,21.30
2023-03-06T00:51:07.039Z,21.39
2023-03-06T00:53:08.404Z,21.49
2023-03-06T00:55:09.772Z,21.54
2023-03-06T00:57:11.114Z,21.59
2023-03-06T00:59:12.456Z,21.60
2023-03-06T01:01:13.789Z,21.62
2023-03-06T01:03:15.124Z,21.64
2023-03-06T01:05:16.507Z,21.62
2023-03-06T01:07:17.875Z,21.61
2023-03-06T01:09:19.237Z,21.59
2023-03-06T01:11:20.531Z,21.62
2023-03-06T01:13:21.887Z,21.65
2023-03-06T01:15:23.216Z,21.62
2023-03-06T01:17:24.544Z,21.59
2023-03-06T01:19:25.882Z,21.55
2023-03-06T01:21:27.264Z,21.53
2023-03-06T01:23:28.573Z,21.49
2023-03-06T01:25:29.897Z,20.58
2023-03-06T01:27:31.223Z,21.43
2023-03-06T01:29:32.586Z,21.45
2023-03-06T01:31:33.940Z,21.43
2023-03-06T01:33:35.311Z,21.41
2023-03-06T01:35:36.666Z,21.39
2023-03-06T01:37:38.010Z,21.36
2023-03-06T01:39:39.358Z,21.35
2023-03-06T01:41:40.705Z,21.35
2023-03-06T01:43:44.122Z,21.34
2023-03-06T01:45:45.463Z,21.31
2023-03-06T01:47:46.809Z,21.29
2023-03-06T01:49:48.129Z,21.32
2023-03-06T01:51:49.522Z,21.30
2023-03-06T01:53:50.857Z,21.28
2023-03-06T01:55:52.162Z,21.25
2023-03-06T01:57:53.620Z,21.27
2023-03-06T01:59:55.023Z,21.28
2023-03-06T02:01:56.452Z,21.27
2023-03-06T02:03:57.805Z,21.29
2023-03-06T02:05:59.150Z,21.33
2023-03-06T02:08:00.487Z,21.44
2023-03-06T02:10:01.785Z,21.49
2023-03-06T02:12:03.111Z,21.49
2023-03-06T02:14:04.416Z,21.53
2023-03-06T02:16:05.744Z,21.52
2023-03-06T02:18:07.068Z,21.57
2023-03-06T02:20:08.402Z,21.54
2023-03-06T02:22:09.719Z,21.54
2023-03-06T02:24:11.011Z,21.57
2023-03-06T02:26:12.365Z,21.65
2023-03-06T02:28:13.664Z,21.75
2023-03-06T02:30:14.971Z,21.74
2023-03-06T02:32:16.312Z,21.75
2023-03-06T02:34:17.645Z,21.74
2023-03-06T02:36:18.973Z,21.69
2023-03-06T02:38:20.301Z,21.66
2023-03-06T02:40:21.604Z,21.60
2023-03-06T02:42:23.010Z,21.58
2023-03-06T02:44:24.315Z,21.53
2023-03-06T02:46:25.688Z,21.61
2023-03-06T02:48:27.017Z,21.58
2023-03-06T02:50:28.346Z,21.55
2023-03-06T02:52:29.743Z,21.52
2023-03-06T02:54:31.051Z,21.48
2023-03-06T02:56:32.350Z,21.45
2023-03-06T02:58:33.688Z,21.42
2023-03-06T03:00:35.012Z,21.40
2023-03-06T03:02:36.329Z,21.41
2023-03-06T03:04:37.768Z,21.40
2023-03-06T03:06:39.164Z,21.37
2023-03-06T03:08:40.507Z,21.36
2023-03-06T03:10:41.808Z,21.34
2023-03-06T03:12:43.176Z,21.31
2023-03-06T03:14:44.545Z,21.33
2023-03-06T03:16:46.048Z,21.40
2023-03-06T03:18:51.210Z,21.41
2023-03-06T03:20:52.504Z,21.43
2023-03-06T03:22:53.834Z,21.40
2023-03-06T03:24:55.206Z,21.43
2023-03-06T03:26:56.604Z,21.46
2023-03-06T03:28:57.916Z,21.51
2023-03-06T03:30:59.305Z,21.53
2023-03-06T03:33:00.639Z,21.57
2023-03-06T03:35:01.956Z,21.62
2023-03-06T03:37:03.357Z,21.65
2023-03-06T03:39:04.666Z,21.73
2023-03-06T03:41:05.976Z,21.98
2023-03-06T03:43:07.307Z,21.90
2023-03-06T03:45:08.667Z,21.74
2023-03-06T03:47:09.959Z,21.65
2023-03-06T03:49:11.295Z,21.57
2023-03-06T03:51:12.879Z,21.49
2023-03-06T03:53:14.271Z,21.43
2023-03-06T03:55:15.621Z,21.46
2023-03-06T03:57:16.956Z,21.45
2023-03-06T03:59:18.288Z,21.16
2023-03-06T04:01:19.583Z,21.10
2023-03-06T04:03:20.877Z,21.02
2023-03-06T04:05:22.205Z,20.76
2023-03-06T04:07:24.419Z,20.87
2023-03-06T04:09:25.759Z,20.95
2023-03-06T04:11:27.073Z,21.00
2023-03-06T04:13:28.372Z,21.00
2023-03-06T04:15:29.677Z,20.99
2023-03-06T04:17:34.005Z,20.96
2023-03-06T04:19:35.316Z,20.96
2023-03-06T04:21:36.656Z,20.94
2023-03-06T04:23:38.011Z,20.94
2023-03-06T04:25:39.375Z,20.93
2023-03-06T04:27:40.691Z,20.93
2023-03-06T04:29:41.984Z,20.94
2023-03-06T04:31:43.450Z,20.95
2023-03-06T04:33:44.917Z,20.98
2023-03-06T04:35:46.473Z,21.06
2023-03-06T04:37:47.789Z,21.12
2023-03-06T04:39:49.147Z,21.22
2023-03-06T04:41:50.476Z,21.29
2023-03-06T04:43:51.943Z,21.35
2023-03-06T04:45:53.327Z,21.39
2023-03-06T04:47:54.693Z,21.44
2023-03-06T04:49:55.991Z,21.46
2023-03-06T04:51:57.360Z,21.41
2023-03-06T04:53:58.722Z,21.33
2023-03-06T04:56:00.011Z,21.21
2023-03-06T04:58:01.307Z,21.12
2023-03-06T05:00:02.988Z,21.02
2023-03-06T05:02:04.370Z,20.96
2023-03-06T05:04:05.723Z,20.94
2023-03-06T05:06:07.051Z,20.93
2023-03-06T05:08:08.359Z,20.90
2023-03-06T05:10:09.666Z,20.88
2023-03-06T05:12:10.955Z,20.90
2023-03-06T05:14:12.253Z,20.86
2023-03-06T05:16:14.014Z,20.84
2023-03-06T05:18:15.412Z,20.82
2023-03-06T05:20:16.765Z,20.80
2023-03-06T05:22:18.103Z,20.78
2023-03-06T05:24:19.406Z,20.77
2023-03-06T05:26:20.745Z,20.76
2023-03-06T05:28:22.103Z,20.74
2023-03-06T05:30:23.694Z,20.73
2023-03-06T05:32:25.058Z,20.73
2023-03-06T05:34:26.459Z,20.73
2023-03-06T05:36:27.852Z,20.74
2023-03-06T05:38:29.320Z,20.73
2023-03-06T05:40:30.662Z,20.74
2023-03-06T05:42:31.967Z,20.77
2023-03-06T05:44:33.358Z,20.81
2023-03-06T05:46:34.743Z,20.85
2023-03-06T05:48:37.517Z,20.87
2023-03-06T05:50:38.828Z,20.92
2023-03-06T05:52:40.248Z,20.98
2023-03-06T05:54:41.737Z,21.05
2023-03-06T05:56:43.029Z,21.09
2023-03-06T05:58:44.352Z,21.16
2023-03-06T06:00:45.651Z,21.18
2023-03-06T06:02:46.966Z,21.22
2023-03-06T06:04:48.256Z,21.25
2023-03-06T06:06:49.583Z,21.27
2023-03-06T06:08:50.923Z,21.30
2023-03-06T06:10:53.471Z,21.30
2023-03-06T06:12:54.907Z,21.29
2023-03-06T06:14:56.253Z,21.31
2023-03-06T06:16:57.558Z,21.27
2023-03-06T06:18:59.134Z,21.24
2023-03-06T06:21:00.504Z,21.21
2023-03-06T06:23:01.797Z,21.17
2023-03-06T06:25:03.295Z,21.16
2023-03-06T06:27:04.623Z,21.12
2023-03-06T06:29:05.925Z,21.08
2023-03-06T06:31:07.363Z,21.05
2023-03-06T06:33:08.725Z,21.03
2023-03-06T06:35:10.078Z,20.98
2023-03-06T06:37:11.393Z,20.97
2023-03-06T06:39:12.729Z,20.94
2023-03-06T06:43:35.453Z,20.90
2023-03-06T06:45:36.780Z,20.87
2023-03-06T06:47:41.765Z,20.86
2023-03-06T06:49:43.593Z,20.86
2023-03-06T06:51:45.008Z,20.82
2023-03-06T06:53:46.337Z,20.82
2023-03-06T06:55:47.676Z,20.82
2023-03-06T06:57:49.037Z,20.81
2023-03-06T06:59:52.584Z,20.83
2023-03-06T07:01:55.240Z,20.84
2023-03-06T07:03:56.603Z,20.85
2023-03-06T07:05:57.943Z,20.88
2023-03-06T07:07:59.340Z,20.93
2023-03-06T07:10:00.671Z,20.98
2023-03-06T07:12:02.036Z,21.05
2023-03-06T07:14:03.427Z,21.14
2023-03-06T07:16:04.781Z,21.18
2023-03-06T07:18:06.149Z,21.21
2023-03-06T07:20:09.008Z,21.26
2023-03-06T07:22:10.808Z,21.31
2023-03-06T07:24:12.118Z,21.34
2023-03-06T07:26:13.422Z,21.37
2023-03-06T07:28:14.748Z,21.39
2023-03-06T07:30:16.091Z,21.43
2023-03-06T07:32:17.390Z,21.43
2023-03-06T07:34:18.716Z,21.42
2023-03-06T07:36:20.075Z,21.41
2023-03-06T07:38:21.422Z,21.39
2023-03-06T07:40:25.815Z,21.38
2023-03-06T07:42:29.232Z,21.36
2023-03-06T07:44:30.611Z,21.31
2023-03-06T07:46:32.099Z,21.27
2023-03-06T07:48:33.422Z,21.22
2023-03-06T07:50:35.289Z,21.18
2023-03-06T07:52:36.603Z,21.14
2023-03-06T07:54:37.914Z,21.11
2023-03-06T07:56:39.227Z,21.09
2023-03-06T07:58:40.538Z,21.04
2023-03-06T08:00:41.848Z,21.02
2023-03-06T08:02:43.312Z,21.00
2023-03-06T08:04:44.672Z,20.97
2023-03-06T08:06:46.039Z,20.94
2023-03-06T08:08:47.349Z,20.93
2023-03-06T08:10:49.161Z,20.92
2023-03-06T08:12:50.496Z,20.90
2023-03-06T08:14:51.826Z,20.90
2023-03-06T08:16:53.133Z,20.88
2023-03-06T08:18:54.474Z,20.88
2023-03-06T08:20:55.809Z,20.87
2023-03-06T08:22:57.164Z,20.87
2023-03-06T08:24:58.480Z,20.88
2023-03-06T08:26:59.780Z,20.89
2023-03-06T08:29:02.178Z,20.93
2023-03-06T08:31:03.481Z,20.98
2023-03-06T08:33:04.782Z,21.05
2023-03-06T08:35:06.106Z,20.24
2023-03-06T08:37:07.579Z,21.19
2023-03-06T08:39:08.918Z,21.25
2023-03-06T08:41:10.218Z,20.95
2023-03-06T08:43:14.010Z,21.36
2023-03-06T08:45:15.564Z,21.41
2023-03-06T08:47:16.885Z,21.40
2023-03-06T08:49:18.218Z,21.43
2023-03-06T08:51:19.553Z,21.44
2023-03-06T08:53:22.723Z,21.46
2023-03-06T08:55:30.124Z,21.43
2023-03-06T08:57:31.575Z,21.41
2023-03-06T08:59:32.883Z,21.38
2023-03-06T09:01:34.753Z,21.35
2023-03-06T09:03:36.133Z,21.32
2023-03-06T09:05:37.447Z,21.33
2023-03-06T09:07:38.758Z,21.27
2023-03-06T09:09:40.074Z,21.23
2023-03-06T09:11:41.385Z,21.19
2023-03-06T09:13:42.732Z,21.16
2023-03-06T09:15:44.086Z,21.12
2023-03-06T09:17:45.739Z,21.08
2023-03-06T09:19:47.084Z,21.04
2023-03-06T09:21:49.198Z,21.00
2023-03-06T09:23:53.876Z,21.00
2023-03-06T09:25:55.236Z,20.95
2023-03-06T09:28:10.492Z,20.93
2023-03-06T09:30:12.844Z,20.90
2023-03-06T09:32:14.213Z,20.89
2023-03-06T09:34:15.610Z,20.88
2023-03-06T09:36:16.948Z,20.85
2023-03-06T09:38:18.281Z,20.85
2023-03-06T09:40:19.613Z,20.83
2023-03-06T09:42:20.981Z,20.84
2023-03-06T09:44:22.294Z,20.87
2023-03-06T09:46:23.694Z,20.88
2023-03-06T09:48:25.066Z,20.94
2023-03-06T09:50:26.378Z,20.98
2023-03-06T09:52:28.273Z,21.05
2023-03-06T09:54:29.640Z,21.11
2023-03-06T09:56:31.952Z,21.15
2023-03-06T09:58:33.248Z,21.09
2023-03-06T10:00:34.661Z,21.03
2023-03-06T10:02:36.008Z,21.00
2023-03-06T10:04:37.412Z,20.94
2023-03-06T10:06:38.861Z,20.85
2023-03-06T10:08:40.162Z,20.86
2023-03-06T10:10:41.464Z,20.87
2023-03-06T10:12:42.817Z,20.91
2023-03-06T10:14:45.434Z,20.96
2023-03-06T10:16:47.901Z,21.01
2023-03-06T10:18:49.216Z,21.07
2023-03-06T10:20:50.557Z,21.12
2023-03-06T10:23:00.540Z,21.16
2023-03-06T10:25:04.566Z,21.17
2023-03-06T10:27:05.923Z,21.21
2023-03-06T10:29:07.310Z,21.23
2023-03-06T10:31:08.800Z,21.25
2023-03-06T10:33:10.328Z,21.27
2023-03-06T10:35:11.632Z,21.25
2023-03-06T10:37:12.928Z,21.24
2023-03-06T10:39:14.235Z,21.22
2023-03-06T10:41:18.495Z,21.23
2023-03-06T10:43:19.844Z,21.25
2023-03-06T10:45:21.155Z,21.26
2023-03-06T10:47:22.483Z,21.23
2023-03-06T10:49:23.821Z,21.21
2023-03-06T10:51:25.135Z,21.19
2023-03-06T10:53:26.574Z,21.21
2023-03-06T10:55:28.005Z,21.20
2023-03-06T10:57:29.555Z,21.19
2023-03-06T10:59:31.100Z,21.18
2023-03-06T11:01:32.477Z,21.16
2023-03-06T11:03:34.249Z,21.13
2023-03-06T11:05:35.583Z,21.12
2023-03-06T11:07:36.954Z,21.10
2023-03-06T11:09:38.395Z,21.09
2023-03-06T11:11:39.841Z,21.04
2023-03-06T11:13:41.221Z,21.00
2023-03-06T11:15:42.547Z,20.95
2023-03-06T11:17:43.922Z,20.90
2023-03-06T11:19:45.243Z,20.88
2023-03-06T11:21:46.540Z,20.88
2023-03-06T11:23:47.852Z,20.83
2023-03-06T11:25:50.292Z,20.81
2023-03-06T11:27:51.627Z,20.80
2023-03-06T11:29:52.919Z,20.79
2023-03-06T11:31:54.249Z,20.75
2023-03-06T11:33:56.710Z,20.77
2023-03-06T11:35:58.109Z,20.77
2023-03-06T11:37:59.479Z,20.77
2023-03-06T11:40:00.810Z,20.77
2023-03-06T11:42:02.145Z,20.77
2023-03-06T11:44:03.540Z,20.79
2023-03-06T11:46:04.893Z,20.81
2023-03-06T11:48:06.220Z,20.80
2023-03-06T11:50:07.514Z,20.82
2023-03-06T11:52:08.820Z,20.86
2023-03-06T11:54:10.148Z,20.85
2023-03-06T11:56:11.468Z,20.89
2023-03-06T11:58:12.892Z,20.89
2023-03-06T12:00:14.252Z,20.90
2023-03-06T12:02:15.754Z,20.90
2023-03-06T12:04:20.274Z,20.89
2023-03-06T12:06:21.567Z,20.90
2023-03-06T12:08:22.912Z,20.90
2023-03-06T12:10:24.450Z,20.89
2023-03-06T12:12:25.775Z,20.88
2023-03-06T12:14:27.096Z,20.87
2023-03-06T12:16:28.483Z,20.89
2023-03-06T12:18:29.842Z,20.89
2023-03-06T12:20:31.147Z,20.91
2023-03-06T12:22:32.895Z,20.91
2023-03-06T12:24:37.042Z,20.92
2023-03-06T12:26:38.398Z,20.94
2023-03-06T12:28:39.774Z,20.94
2023-03-06T12:30:41.079Z,20.95
2023-03-06T12:32:42.480Z,20.97
2023-03-06T12:34:43.837Z,21.00
2023-03-06T12:36:45.364Z,21.01
2023-03-06T12:38:46.660Z,21.02
2023-03-06T12:40:47.996Z,21.04
2023-03-06T12:42:49.381Z,21.05
2023-03-06T12:44:50.717Z,21.05
2023-03-06T12:46:52.088Z,21.06
2023-03-06T12:48:53.383Z,21.05
2023-03-06T12:50:54.751Z,21.06
2023-03-06T12:52:56.094Z,21.06
2023-03-06T12:54:57.464Z,21.06
2023-03-06T12:56:58.803Z,21.06
2023-03-06T12:59:02.549Z,21.04
2023-03-06T13:01:06.619Z,21.01
2023-03-06T13:03:07.936Z,21.00
2023-03-06T13:05:09.458Z,20.98
2023-03-06T13:07:10.819Z,20.96
2023-03-06T13:09:12.388Z,20.93
2023-03-06T13:11:13.728Z,20.91
2023-03-06T13:13:15.068Z,20.89
2023-03-06T13:15:16.387Z,20.90
2023-03-06T13:17:17.694Z,20.89
2023-03-06T13:19:19.038Z,20.91
2023-03-06T13:21:20.324Z,20.88
2023-03-06T13:23:21.619Z,20.89
2023-03-06T13:25:23.060Z,20.87
2023-03-06T13:27:24.406Z,20.89
2023-03-06T13:29:25.754Z,20.90
2023-03-06T13:31:28.119Z,20.88
2023-03-06T13:33:37.197Z,20.88
2023-03-06T13:35:38.548Z,20.89
2023-03-06T13:37:39.907Z,20.87
2023-03-06T13:39:41.235Z,20.85
2023-03-06T13:41:42.629Z,20.84
2023-03-06T13:43:45.485Z,20.90
2023-03-06T13:45:47.118Z,22.01
2023-03-06T13:48:14.144Z,22.59
2023-03-06T13:50:11.928Z,23.15
2023-03-06T13:52:13.278Z,22.87
2023-03-06T13:54:14.624Z,22.89
2023-03-06T13:56:15.938Z,22.47
2023-03-06T13:58:17.268Z,22.27
2023-03-06T14:00:19.118Z,22.81
2023-03-06T14:02:20.467Z,22.85
2023-03-06T14:04:22.002Z,22.40
2023-03-06T14:06:24.020Z,22.68
2023-03-06T14:08:25.320Z,22.80
2023-03-06T14:10:26.710Z,23.29
2023-03-06T14:12:28.120Z,23.60
2023-03-06T14:14:29.423Z,23.74
2023-03-06T14:16:37.552Z,23.55
2023-03-06T14:18:48.871Z,23.05
2023-03-06T14:20:50.216Z,22.99
2023-03-06T14:24:52.997Z,22.73
2023-03-06T14:26:54.354Z,23.28
2023-03-06T14:28:55.725Z,23.10
2023-03-06T14:30:57.347Z,23.54
2023-03-06T14:32:58.692Z,23.24
2023-03-06T14:34:59.984Z,23.28
2023-03-06T14:37:01.511Z,23.01
2023-03-06T14:39:04.256Z,22.73
2023-03-06T14:41:05.767Z,22.58
2023-03-06T14:43:07.117Z,22.50
2023-03-06T14:45:08.418Z,21.89
2023-03-06T14:47:09.754Z,21.50
2023-03-06T14:49:11.143Z,21.35
2023-03-06T14:51:12.441Z,21.31
2023-03-06T14:53:13.788Z,21.29
2023-03-06T14:55:15.134Z,21.27
2023-03-06T14:57:16.494Z,21.28
2023-03-06T14:59:17.802Z,21.28
2023-03-06T15:01:19.150Z,21.33
2023-03-06T15:03:20.580Z,21.37
2023-03-06T15:05:22.061Z,21.39
2023-03-06T15:07:23.508Z,21.43
2023-03-06T15:09:24.880Z,21.49
2023-03-06T15:11:26.215Z,21.53
2023-03-06T15:13:27.600Z,21.59
2023-03-06T15:15:28.976Z,21.61
2023-03-06T15:17:30.444Z,21.69
2023-03-06T15:19:31.788Z,21.72
2023-03-06T15:21:33.152Z,21.76
2023-03-06T15:23:37.362Z,21.80
2023-03-06T15:25:38.759Z,21.84
2023-03-06T15:27:40.136Z,21.73
2023-03-06T15:29:41.439Z,21.68
2023-03-06T15:31:42.845Z,21.67
2023-03-06T15:33:44.227Z,21.61
2023-03-06T15:35:45.626Z,21.61
2023-03-06T15:37:46.968Z,21.60
2023-03-06T15:39:48.264Z,21.60
2023-03-06T15:41:49.616Z,21.57
2023-03-06T15:43:50.974Z,21.53
2023-03-06T15:45:52.308Z,21.51
2023-03-06T15:47:53.667Z,21.45
2023-03-06T15:49:55.358Z,21.42
2023-03-06T15:51:56.747Z,21.37
2023-03-06T15:54:09.890Z,21.33
2023-03-06T15:56:13.143Z,21.29
2023-03-06T15:58:14.458Z,21.24
2023-03-06T16:00:26.998Z,21.21
2023-03-06T16:02:28.857Z,21.17
2023-03-06T16:04:30.196Z,21.13
2023-03-06T16:06:31.537Z,21.10
2023-03-06T16:08:32.845Z,21.08
2023-03-06T16:10:34.191Z,21.05
2023-03-06T16:12:35.524Z,21.03
2023-03-06T16:14:36.832Z,21.01
2023-03-06T16:16:39.659Z,21.00
2023-03-06T16:18:41.003Z,21.74
2023-03-06T16:20:42.349Z,22.60
2023-03-06T16:22:44.328Z,22.47
2023-03-06T16:24:48.424Z,22.71
2023-03-06T16:26:50.997Z,22.68
2023-03-06T16:28:52.323Z,22.45
2023-03-06T16:30:56.769Z,22.31
2023-03-06T16:35:05.493Z,22.48
2023-03-06T16:37:09.988Z,22.65
2023-03-06T16:39:11.418Z,22.54
2023-03-06T16:41:12.720Z,22.87
2023-03-06T16:43:17.180Z,22.30
2023-03-06T16:45:21.387Z,22.82
2023-03-06T16:47:22.761Z,22.78
2023-03-06T16:49:24.133Z,22.97
2023-03-06T16:51:25.513Z,23.28
2023-03-06T16:53:26.884Z,23.05
2023-03-06T16:55:28.199Z,22.83
2023-03-06T16:57:35.556Z,22.76
2023-03-06T16:59:36.908Z,22.72
2023-03-06T17:01:38.720Z,22.66
2023-03-06T17:03:40.112Z,22.18
2023-03-06T17:05:43.773Z,22.54
2023-03-06T17:07:45.428Z,22.95
2023-03-06T17:09:52.696Z,22.62
2023-03-06T17:11:54.046Z,22.83
2023-03-06T17:13:58.311Z,22.57
2023-03-06T17:16:01.901Z,22.34
2023-03-06T17:18:03.383Z,22.02
2023-03-06T17:20:07.459Z,22.11
2023-03-06T17:22:08.811Z,22.18
2023-03-06T17:24:10.155Z,22.18
2023-03-06T17:26:14.302Z,22.18
2023-03-06T17:28:15.708Z,22.21
2023-03-06T17:30:17.109Z,22.23
2023-03-06T17:32:18.502Z,22.20
2023-03-06T17:34:24.558Z,22.20
2023-03-06T17:36:26.015Z,22.19
2023-03-06T17:38:27.495Z,22.22
2023-03-06T17:40:28.849Z,22.22
2023-03-06T17:42:30.195Z,22.24
2023-03-06T17:44:31.517Z,22.26
2023-03-06T17:46:34.588Z,22.14
2023-03-06T17:48:35.982Z,22.20
2023-03-06T17:50:37.272Z,22.26
2023-03-06T17:52:39.029Z,22.32
2023-03-06T17:54:40.519Z,22.35
2023-03-06T17:56:41.837Z,22.41
2023-03-06T17:58:43.218Z,22.43
2023-03-06T18:00:44.585Z,22.48
2023-03-06T18:02:45.915Z,22.54
2023-03-06T18:04:53.398Z,22.58
2023-03-06T18:06:54.772Z,22.59
2023-03-06T18:08:56.243Z,22.55
2023-03-06T18:10:57.539Z,22.57
2023-03-06T18:12:58.882Z,22.33
2023-03-06T18:15:00.283Z,22.03
2023-03-06T18:17:02.233Z,22.31
2023-03-06T18:19:03.772Z,22.42
2023-03-06T18:21:05.117Z,22.53
2023-03-06T18:23:06.507Z,22.38
2023-03-06T18:25:10.592Z,22.37
2023-03-06T18:27:11.972Z,22.43
2023-03-06T18:29:13.272Z,22.49
2023-03-06T18:33:16.056Z,22.50
2023-03-06T18:35:20.361Z,22.46
2023-03-06T18:37:21.767Z,22.76
2023-03-06T18:39:23.134Z,22.65
2023-03-06T18:41:24.522Z,22.56
2023-03-06T18:43:25.851Z,22.87
2023-03-06T18:45:30.201Z,22.69
2023-03-06T18:47:31.699Z,22.60
2023-03-06T18:49:32.999Z,22.53
2023-03-06T18:51:34.304Z,22.37
2023-03-06T18:53:35.644Z,22.04
2023-03-06T18:55:37.049Z,22.09
2023-03-06T18:57:38.390Z,22.29
2023-03-06T18:59:42.513Z,22.39
2023-03-06T19:01:43.851Z,22.44
2023-03-06T19:03:45.226Z,22.49
2023-03-06T19:05:47.208Z,22.52
2023-03-06T19:09:52.491Z,22.57
2023-03-06T19:11:54.964Z,22.61
2023-03-06T19:13:56.527Z,22.76
2023-03-06T19:16:00.977Z,22.61
2023-03-06T19:18:02.295Z,22.53
2023-03-06T19:20:04.355Z,22.47
2023-03-06T19:22:05.694Z,22.57
2023-03-06T19:24:13.214Z,22.63
2023-03-06T19:26:17.250Z,22.77
2023-03-06T19:28:18.548Z,22.65
2023-03-06T19:30:25.538Z,22.35
2023-03-06T19:32:33.560Z,22.25
2023-03-06T19:34:34.937Z,22.46
2023-03-06T19:36:38.513Z,22.65
2023-03-06T19:38:39.853Z,22.66
2023-03-06T19:40:41.201Z,22.69
2023-03-06T19:42:42.549Z,22.29
2023-03-06T19:44:43.846Z,22.27
2023-03-06T19:46:45.152Z,22.26
2023-03-06T19:48:52.329Z,22.25
2023-03-06T19:50:53.700Z,22.33
2023-03-06T19:52:55.922Z,22.42
2023-03-06T19:54:57.221Z,22.44
2023-03-06T19:56:58.568Z,22.35
2023-03-06T19:59:00.109Z,22.62
2023-03-06T20:01:01.449Z,22.93
2023-03-06T20:03:02.889Z,23.06
2023-03-06T20:05:04.188Z,22.95
2023-03-06T20:07:05.497Z,23.05
2023-03-06T20:09:06.934Z,23.07
2023-03-06T20:11:08.261Z,23.03
2023-03-06T20:13:13.287Z,23.14
2023-03-06T20:15:14.679Z,22.81
2023-03-06T20:17:16.092Z,22.39
2023-03-06T20:19:21.820Z,21.90
2023-03-06T20:21:23.364Z,21.68
2023-03-06T20:23:24.650Z,21.60
2023-03-06T20:25:26.511Z,21.55
2023-03-06T20:27:27.917Z,21.54
2023-03-06T20:29:29.235Z,21.40
2023-03-06T20:31:30.683Z,21.63
2023-03-06T20:33:32.056Z,22.02
2023-03-06T20:35:33.364Z,22.24
2023-03-06T20:37:34.736Z,22.34
2023-03-06T20:39:36.098Z,22.77
2023-03-06T20:41:37.517Z,23.06
2023-03-06T20:43:38.818Z,23.14
2023-03-06T20:45:40.120Z,23.24
2023-03-06T20:47:47.436Z,23.15
2023-03-06T20:49:48.811Z,23.27
2023-03-06T20:51:50.407Z,23.26
2023-03-06T20:53:53.023Z,23.18
2023-03-06T20:55:54.401Z,23.26
2023-03-06T20:57:55.767Z,23.09
2023-03-06T20:59:57.101Z,22.97
2023-03-06T21:01:58.432Z,22.95
2023-03-06T21:03:59.776Z,23.12
2023-03-06T21:06:01.080Z,23.16
2023-03-06T21:08:02.434Z,23.06
2023-03-06T21:10:03.771Z,23.02
2023-03-06T21:12:05.095Z,23.06
2023-03-06T21:14:06.444Z,22.95
2023-03-06T21:16:07.855Z,22.84
2023-03-06T21:18:09.170Z,22.91
2023-03-06T21:20:10.552Z,22.99
2023-03-06T21:22:11.943Z,23.01
2023-03-06T21:24:14.293Z,23.06
2023-03-06T21:26:15.596Z,23.04
2023-03-06T21:28:16.927Z,22.95
2023-03-06T21:30:18.279Z,23.01
2023-03-06T21:32:19.660Z,23.00
2023-03-06T21:34:21.021Z,23.04
2023-03-06T21:36:22.588Z,22.94
2023-03-06T21:38:23.929Z,22.95
2023-03-06T21:40:25.273Z,22.99
2023-03-06T21:42:26.576Z,23.01
2023-03-06T21:44:27.889Z,20.06
2023-03-06T21:46:29.236Z,17.70
2023-03-06T21:48:30.576Z,17.00
2023-03-06T21:50:31.883Z,18.94
2023-03-06T21:52:33.208Z,20.04
2023-03-06T21:54:34.547Z,20.62
2023-03-06T21:56:35.852Z,20.91
2023-03-06T21:58:37.181Z,21.12
2023-03-06T22:00:38.701Z,20.43
2023-03-06T22:02:40.054Z,21.48
2023-03-06T22:04:41.642Z,21.65
2023-03-06T22:06:42.964Z,21.73
2023-03-06T22:08:44.280Z,21.84
2023-03-06T22:10:48.453Z,21.87
2023-03-06T22:12:49.844Z,21.95
2023-03-06T22:14:51.761Z,21.96
2023-03-06T22:16:53.163Z,22.00
2023-03-06T22:18:54.556Z,22.03
2023-03-06T22:20:55.892Z,22.06
2023-03-06T22:22:57.232Z,22.09
2023-03-06T22:24:58.623Z,22.06
2023-03-06T22:26:59.952Z,22.09
2023-03-06T22:29:01.247Z,22.10
2023-03-06T22:31:02.552Z,22.08
2023-03-06T22:33:03.890Z,22.11
2023-03-06T22:35:05.179Z,22.07
2023-03-06T22:37:06.520Z,22.05
2023-03-06T22:39:07.861Z,22.01
2023-03-06T22:41:09.172Z,21.99
2023-03-06T22:43:10.480Z,21.92
2023-03-06T22:45:11.808Z,21.84
2023-03-06T22:47:13.112Z,21.83
2023-03-06T22:49:15.831Z,21.77
2023-03-06T22:51:17.185Z,21.73
2023-03-06T22:53:18.528Z,21.70
2023-03-06T22:55:19.842Z,21.66
2023-03-06T22:57:21.159Z,21.64
2023-03-06T22:59:22.462Z,21.63
2023-03-06T23:01:25.177Z,21.63
2023-03-06T23:03:26.604Z,21.60
2023-03-06T23:05:29.455Z,21.57
2023-03-06T23:07:30.904Z,21.53
2023-03-06T23:09:33.106Z,21.51
2023-03-06T23:11:34.402Z,21.50
2023-03-06T23:13:35.704Z,21.48
2023-03-06T23:15:37.351Z,21.47
2023-03-06T23:17:38.689Z,21.45
2023-03-06T23:19:40.040Z,21.41
2023-03-06T23:21:41.344Z,21.39
2023-03-06T23:23:44.204Z,21.36
2023-03-06T23:25:45.597Z,21.36
2023-03-06T23:27:46.900Z,21.35
2023-03-06T23:29:48.272Z,21.33
2023-03-06T23:31:49.599Z,21.31
2023-03-06T23:33:50.943Z,21.28
2023-03-06T23:35:52.313Z,21.28
2023-03-06T23:37:53.717Z,21.26
2023-03-06T23:39:55.016Z,21.26
2023-03-06T23:41:56.341Z,21.29
2023-03-06T23:43:57.647Z,21.28
2023-03-06T23:45:59.096Z,21.31
2023-03-06T23:48:00.486Z,21.35
2023-03-06T23:50:02.208Z,21.39
2023-03-06T23:52:04.370Z,21.46
2023-03-06T23:54:05.891Z,21.55
2023-03-06T23:56:07.232Z,21.62
2023-03-06T23:58:08.528Z,21.66
